sensor_id;sensor_type;location;lat;lon;timestamp;pressure;altitude;pressure_sealevel;temperature
76381;BMP280;65202;52.520;10.528;2023-05-18T00:00:40;102217.09;;;7.73
76381;BMP280;65202;52.520;10.528;2023-05-18T00:03:11;102213.53;;;7.59
76381;BMP280;65202;52.520;10.528;2023-05-18T00:05:38;102212.06;;;7.83
76381;BMP280;65202;52.520;10.528;2023-05-18T00:08:05;102217.38;;;7.66
76381;BMP280;65202;52.520;10.528;2023-05-18T00:10:35;102217.31;;;7.86
76381;BMP280;65202;52.520;10.528;2023-05-18T00:13:02;102223.34;;;7.68
76381;BMP280;65202;52.520;10.528;2023-05-18T00:15:31;102215.84;;;7.68
76381;BMP280;65202;52.520;10.528;2023-05-18T00:17:58;102211.13;;;7.71
76381;BMP280;65202;52.520;10.528;2023-05-18T00:20:25;102229.59;;;6.72
76381;BMP280;65202;52.520;10.528;2023-05-18T00:22:53;102229.59;;;6.62
76381;BMP280;65202;52.520;10.528;2023-05-18T00:25:20;102216.78;;;6.97
76381;BMP280;65202;52.520;10.528;2023-05-18T00:27:47;102225.66;;;7.45
76381;BMP280;65202;52.520;10.528;2023-05-18T00:30:15;102223.19;;;7.25
76381;BMP280;65202;52.520;10.528;2023-05-18T00:32:43;102217.72;;;7.29
76381;BMP280;65202;52.520;10.528;2023-05-18T00:35:10;102226.50;;;6.75
76381;BMP280;65202;52.520;10.528;2023-05-18T00:37:37;102229.22;;;6.88
76381;BMP280;65202;52.520;10.528;2023-05-18T00:40:05;102220.38;;;6.81
76381;BMP280;65202;52.520;10.528;2023-05-18T00:42:33;102226.72;;;6.68
76381;BMP280;65202;52.520;10.528;2023-05-18T00:45:00;102221.50;;;7.04
76381;BMP280;65202;52.520;10.528;2023-05-18T00:47:27;102224.59;;;7.12
76381;BMP280;65202;52.520;10.528;2023-05-18T00:49:54;102225.56;;;7.24
76381;BMP280;65202;52.520;10.528;2023-05-18T00:52:22;102229.44;;;7.10
76381;BMP280;65202;52.520;10.528;2023-05-18T00:54:50;102229.72;;;7.13
76381;BMP280;65202;52.520;10.528;2023-05-18T00:57:18;102233.91;;;7.24
76381;BMP280;65202;52.520;10.528;2023-05-18T00:59:46;102240.03;;;7.28
76381;BMP280;65202;52.520;10.528;2023-05-18T01:02:14;102228.81;;;7.13
76381;BMP280;65202;52.520;10.528;2023-05-18T01:04:41;102224.84;;;7.05
76381;BMP280;65202;52.520;10.528;2023-05-18T01:07:09;102229.56;;;7.22
76381;BMP280;65202;52.520;10.528;2023-05-18T01:09:36;102230.47;;;7.02
76381;BMP280;65202;52.520;10.528;2023-05-18T01:12:35;102228.97;;;7.04
76381;BMP280;65202;52.520;10.528;2023-05-18T01:15:14;102230.56;;;7.14
76381;BMP280;65202;52.520;10.528;2023-05-18T01:17:53;102243.63;;;6.62
76381;BMP280;65202;52.520;10.528;2023-05-18T01:20:36;102240.81;;;6.97
76381;BMP280;65202;52.520;10.528;2023-05-18T01:26:26;102236.69;;;6.78
76381;BMP280;65202;52.520;10.528;2023-05-18T01:29:01;102250.78;;;6.29
76381;BMP280;65202;52.520;10.528;2023-05-18T01:31:32;102250.53;;;6.26
76381;BMP280;65202;52.520;10.528;2023-05-18T01:34:00;102253.78;;;6.25
76381;BMP280;65202;52.520;10.528;2023-05-18T01:36:28;102252.44;;;6.38
76381;BMP280;65202;52.520;10.528;2023-05-18T01:38:55;102253.25;;;6.67
76381;BMP280;65202;52.520;10.528;2023-05-18T01:41:28;102258.81;;;6.45
76381;BMP280;65202;52.520;10.528;2023-05-18T01:44:09;102257.47;;;6.58
76381;BMP280;65202;52.520;10.528;2023-05-18T01:49:31;102260.66;;;6.47
76381;BMP280;65202;52.520;10.528;2023-05-18T01:52:10;102262.53;;;6.50
76381;BMP280;65202;52.520;10.528;2023-05-18T01:54:49;102259.78;;;6.37
76381;BMP280;65202;52.520;10.528;2023-05-18T01:57:23;102261.03;;;6.52
76381;BMP280;65202;52.520;10.528;2023-05-18T01:59:53;102262.41;;;6.38
76381;BMP280;65202;52.520;10.528;2023-05-18T02:02:21;102270.59;;;6.37
76381;BMP280;65202;52.520;10.528;2023-05-18T02:04:48;102273.50;;;6.62
76381;BMP280;65202;52.520;10.528;2023-05-18T02:07:15;102265.66;;;6.57
76381;BMP280;65202;52.520;10.528;2023-05-18T02:09:43;102271.44;;;6.28
76381;BMP280;65202;52.520;10.528;2023-05-18T02:12:10;102264.47;;;6.24
76381;BMP280;65202;52.520;10.528;2023-05-18T02:14:37;102258.34;;;6.11
76381;BMP280;65202;52.520;10.528;2023-05-18T02:17:05;102268.91;;;6.08
76381;BMP280;65202;52.520;10.528;2023-05-18T02:19:33;102276.75;;;5.94
76381;BMP280;65202;52.520;10.528;2023-05-18T02:22:05;102269.16;;;6.11
76381;BMP280;65202;52.520;10.528;2023-05-18T02:24:35;102271.66;;;5.93
76381;BMP280;65202;52.520;10.528;2023-05-18T02:27:04;102270.56;;;5.99
76381;BMP280;65202;52.520;10.528;2023-05-18T02:29:31;102280.75;;;4.74
76381;BMP280;65202;52.520;10.528;2023-05-18T02:31:58;102268.69;;;5.50
76381;BMP280;65202;52.520;10.528;2023-05-18T02:34:26;102263.84;;;5.52
76381;BMP280;65202;52.520;10.528;2023-05-18T02:36:53;102273.91;;;5.71
76381;BMP280;65202;52.520;10.528;2023-05-18T02:39:23;102269.75;;;5.62
76381;BMP280;65202;52.520;10.528;2023-05-18T02:41:51;102274.50;;;5.87
76381;BMP280;65202;52.520;10.528;2023-05-18T02:44:18;102272.88;;;5.88
76381;BMP280;65202;52.520;10.528;2023-05-18T02:46:45;102278.34;;;5.84
76381;BMP280;65202;52.520;10.528;2023-05-18T02:49:12;102277.88;;;5.88
76381;BMP280;65202;52.520;10.528;2023-05-18T02:51:39;102273.84;;;5.80
76381;BMP280;65202;52.520;10.528;2023-05-18T02:54:07;102273.31;;;6.21
76381;BMP280;65202;52.520;10.528;2023-05-18T02:56:34;102272.38;;;6.10
76381;BMP280;65202;52.520;10.528;2023-05-18T02:59:01;102273.72;;;5.78
76381;BMP280;65202;52.520;10.528;2023-05-18T03:01:29;102275.31;;;5.78
76381;BMP280;65202;52.520;10.528;2023-05-18T03:03:57;102271.75;;;5.66
76381;BMP280;65202;52.520;10.528;2023-05-18T03:06:25;102280.56;;;5.44
76381;BMP280;65202;52.520;10.528;2023-05-18T03:08:53;102276.94;;;5.59
76381;BMP280;65202;52.520;10.528;2023-05-18T03:11:21;102286.63;;;5.19
76381;BMP280;65202;52.520;10.528;2023-05-18T03:13:49;102276.47;;;5.45
76381;BMP280;65202;52.520;10.528;2023-05-18T03:16:16;102277.88;;;5.51
76381;BMP280;65202;52.520;10.528;2023-05-18T03:18:44;102286.53;;;4.83
76381;BMP280;65202;52.520;10.528;2023-05-18T03:21:12;102282.13;;;5.34
76381;BMP280;65202;52.520;10.528;2023-05-18T03:23:42;102286.72;;;5.02
76381;BMP280;65202;52.520;10.528;2023-05-18T03:26:09;102293.25;;;5.29
76381;BMP280;65202;52.520;10.528;2023-05-18T03:28:38;102288.88;;;5.08
76381;BMP280;65202;52.520;10.528;2023-05-18T03:31:05;102288.44;;;5.49
76381;BMP280;65202;52.520;10.528;2023-05-18T03:33:32;102290.59;;;5.36
76381;BMP280;65202;52.520;10.528;2023-05-18T03:36:02;102296.94;;;5.05
76381;BMP280;65202;52.520;10.528;2023-05-18T03:38:30;102297.88;;;5.16
76381;BMP280;65202;52.520;10.528;2023-05-18T03:40:57;102303.41;;;4.95
76381;BMP280;65202;52.520;10.528;2023-05-18T03:43:25;102302.88;;;5.34
76381;BMP280;65202;52.520;10.528;2023-05-18T03:45:52;102305.66;;;5.29
76381;BMP280;65202;52.520;10.528;2023-05-18T03:48:19;102301.56;;;5.11
76381;BMP280;65202;52.520;10.528;2023-05-18T03:50:48;102315.41;;;4.91
76381;BMP280;65202;52.520;10.528;2023-05-18T03:53:16;102319.41;;;5.07
76381;BMP280;65202;52.520;10.528;2023-05-18T03:55:45;102318.84;;;5.01
76381;BMP280;65202;52.520;10.528;2023-05-18T03:58:15;102311.84;;;5.05
76381;BMP280;65202;52.520;10.528;2023-05-18T04:00:42;102312.03;;;4.90
76381;BMP280;65202;52.520;10.528;2023-05-18T04:03:09;102307.81;;;4.89
76381;BMP280;65202;52.520;10.528;2023-05-18T04:05:40;102306.44;;;5.01
76381;BMP280;65202;52.520;10.528;2023-05-18T04:08:11;102312.59;;;4.26
76381;BMP280;65202;52.520;10.528;2023-05-18T04:10:41;102318.06;;;4.57
76381;BMP280;65202;52.520;10.528;2023-05-18T04:13:09;102313.53;;;5.06
76381;BMP280;65202;52.520;10.528;2023-05-18T04:15:37;102316.78;;;5.05
76381;BMP280;65202;52.520;10.528;2023-05-18T04:18:04;102308.16;;;5.29
76381;BMP280;65202;52.520;10.528;2023-05-18T04:20:31;102309.78;;;5.01
76381;BMP280;65202;52.520;10.528;2023-05-18T04:22:58;102312.84;;;5.26
76381;BMP280;65202;52.520;10.528;2023-05-18T04:25:26;102321.59;;;5.31
76381;BMP280;65202;52.520;10.528;2023-05-18T04:27:55;102323.47;;;5.06
76381;BMP280;65202;52.520;10.528;2023-05-18T04:30:25;102327.06;;;5.18
76381;BMP280;65202;52.520;10.528;2023-05-18T04:32:53;102323.13;;;5.39
76381;BMP280;65202;52.520;10.528;2023-05-18T04:35:20;102331.56;;;5.22
76381;BMP280;65202;52.520;10.528;2023-05-18T04:37:47;102330.53;;;5.20
76381;BMP280;65202;52.520;10.528;2023-05-18T04:40:15;102328.50;;;5.25
76381;BMP280;65202;52.520;10.528;2023-05-18T04:42:43;102334.75;;;5.30
76381;BMP280;65202;52.520;10.528;2023-05-18T04:45:12;102338.47;;;5.43
76381;BMP280;65202;52.520;10.528;2023-05-18T04:47:43;102337.56;;;5.43
76381;BMP280;65202;52.520;10.528;2023-05-18T04:50:14;102333.78;;;5.38
76381;BMP280;65202;52.520;10.528;2023-05-18T04:52:42;102345.50;;;5.39
76381;BMP280;65202;52.520;10.528;2023-05-18T04:55:20;102344.50;;;5.55
76381;BMP280;65202;52.520;10.528;2023-05-18T04:57:54;102344.75;;;5.40
76381;BMP280;65202;52.520;10.528;2023-05-18T05:00:24;102340.00;;;5.69
76381;BMP280;65202;52.520;10.528;2023-05-18T05:02:53;102343.03;;;5.57
76381;BMP280;65202;52.520;10.528;2023-05-18T05:05:21;102348.06;;;5.67
76381;BMP280;65202;52.520;10.528;2023-05-18T05:07:50;102346.69;;;5.70
76381;BMP280;65202;52.520;10.528;2023-05-18T05:10:18;102353.91;;;5.67
76381;BMP280;65202;52.520;10.528;2023-05-18T05:12:48;102350.78;;;5.78
76381;BMP280;65202;52.520;10.528;2023-05-18T05:15:17;102342.22;;;6.03
76381;BMP280;65202;52.520;10.528;2023-05-18T05:17:48;102348.94;;;6.04
76381;BMP280;65202;52.520;10.528;2023-05-18T05:20:16;102344.97;;;6.06
76381;BMP280;65202;52.520;10.528;2023-05-18T05:22:43;102358.41;;;5.71
76381;BMP280;65202;52.520;10.528;2023-05-18T05:25:11;102348.66;;;6.01
76381;BMP280;65202;52.520;10.528;2023-05-18T05:27:38;102344.78;;;5.95
76381;BMP280;65202;52.520;10.528;2023-05-18T05:30:06;102349.16;;;5.97
76381;BMP280;65202;52.520;10.528;2023-05-18T05:32:34;102348.13;;;6.42
76381;BMP280;65202;52.520;10.528;2023-05-18T05:35:02;102352.38;;;6.53
76381;BMP280;65202;52.520;10.528;2023-05-18T05:37:30;102355.50;;;6.22
76381;BMP280;65202;52.520;10.528;2023-05-18T05:39:57;102363.31;;;6.45
76381;BMP280;65202;52.520;10.528;2023-05-18T05:42:25;102358.66;;;6.78
76381;BMP280;65202;52.520;10.528;2023-05-18T05:44:52;102355.66;;;6.72
76381;BMP280;65202;52.520;10.528;2023-05-18T05:47:20;102362.19;;;6.89
76381;BMP280;65202;52.520;10.528;2023-05-18T05:49:47;102370.44;;;6.60
76381;BMP280;65202;52.520;10.528;2023-05-18T05:52:14;102362.38;;;7.21
76381;BMP280;65202;52.520;10.528;2023-05-18T05:54:41;102365.34;;;7.37
76381;BMP280;65202;52.520;10.528;2023-05-18T05:57:09;102363.75;;;7.47
76381;BMP280;65202;52.520;10.528;2023-05-18T05:59:36;102357.25;;;7.49
76381;BMP280;65202;52.520;10.528;2023-05-18T06:02:03;102372.69;;;7.35
76381;BMP280;65202;52.520;10.528;2023-05-18T06:04:31;102360.97;;;7.34
76381;BMP280;65202;52.520;10.528;2023-05-18T06:06:58;102366.72;;;7.13
76381;BMP280;65202;52.520;10.528;2023-05-18T06:09:25;102365.72;;;7.51
76381;BMP280;65202;52.520;10.528;2023-05-18T06:11:53;102360.00;;;7.62
76381;BMP280;65202;52.520;10.528;2023-05-18T06:14:20;102359.59;;;7.57
76381;BMP280;65202;52.520;10.528;2023-05-18T06:16:48;102368.28;;;7.92
76381;BMP280;65202;52.520;10.528;2023-05-18T06:19:15;102367.19;;;7.59
76381;BMP280;65202;52.520;10.528;2023-05-18T06:21:42;102365.16;;;8.15
76381;BMP280;65202;52.520;10.528;2023-05-18T06:24:09;102369.25;;;8.04
76381;BMP280;65202;52.520;10.528;2023-05-18T06:26:37;102365.63;;;8.01
76381;BMP280;65202;52.520;10.528;2023-05-18T06:29:04;102361.94;;;8.27
76381;BMP280;65202;52.520;10.528;2023-05-18T06:31:31;102365.91;;;8.14
76381;BMP280;65202;52.520;10.528;2023-05-18T06:33:59;102369.16;;;8.65
76381;BMP280;65202;52.520;10.528;2023-05-18T06:36:26;102369.44;;;8.58
76381;BMP280;65202;52.520;10.528;2023-05-18T06:38:53;102366.09;;;8.79
76381;BMP280;65202;52.520;10.528;2023-05-18T06:41:21;102367.16;;;8.71
76381;BMP280;65202;52.520;10.528;2023-05-18T06:43:48;102371.84;;;8.78
76381;BMP280;65202;52.520;10.528;2023-05-18T06:46:20;102377.94;;;9.03
76381;BMP280;65202;52.520;10.528;2023-05-18T06:48:48;102380.91;;;8.87
76381;BMP280;65202;52.520;10.528;2023-05-18T06:51:16;102379.69;;;9.04
76381;BMP280;65202;52.520;10.528;2023-05-18T06:53:43;102371.22;;;9.13
76381;BMP280;65202;52.520;10.528;2023-05-18T06:56:10;102367.09;;;9.46
76381;BMP280;65202;52.520;10.528;2023-05-18T06:58:40;102368.84;;;9.47
76381;BMP280;65202;52.520;10.528;2023-05-18T07:01:08;102370.06;;;9.52
76381;BMP280;65202;52.520;10.528;2023-05-18T07:03:37;102373.78;;;9.69
76381;BMP280;65202;52.520;10.528;2023-05-18T07:06:04;102373.00;;;9.26
76381;BMP280;65202;52.520;10.528;2023-05-18T07:08:32;102367.13;;;9.69
76381;BMP280;65202;52.520;10.528;2023-05-18T07:10:59;102367.94;;;9.91
76381;BMP280;65202;52.520;10.528;2023-05-18T07:13:28;102375.69;;;10.05
76381;BMP280;65202;52.520;10.528;2023-05-18T07:15:56;102372.38;;;9.72
76381;BMP280;65202;52.520;10.528;2023-05-18T07:18:24;102363.78;;;9.80
76381;BMP280;65202;52.520;10.528;2023-05-18T07:20:52;102373.53;;;9.99
76381;BMP280;65202;52.520;10.528;2023-05-18T07:23:19;102373.06;;;10.04
76381;BMP280;65202;52.520;10.528;2023-05-18T07:25:47;102365.13;;;9.98
76381;BMP280;65202;52.520;10.528;2023-05-18T07:28:15;102368.91;;;10.39
76381;BMP280;65202;52.520;10.528;2023-05-18T07:30:42;102369.56;;;10.36
76381;BMP280;65202;52.520;10.528;2023-05-18T07:33:10;102368.78;;;10.49
76381;BMP280;65202;52.520;10.528;2023-05-18T07:35:37;102370.69;;;10.75
76381;BMP280;65202;52.520;10.528;2023-05-18T07:38:04;102374.13;;;11.37
76381;BMP280;65202;52.520;10.528;2023-05-18T07:40:31;102362.34;;;12.91
76381;BMP280;65202;52.520;10.528;2023-05-18T07:42:59;102359.81;;;13.33
76381;BMP280;65202;52.520;10.528;2023-05-18T07:45:26;102351.97;;;14.29
76381;BMP280;65202;52.520;10.528;2023-05-18T07:47:53;102351.88;;;14.28
76381;BMP280;65202;52.520;10.528;2023-05-18T07:50:21;102353.06;;;15.28
76381;BMP280;65202;52.520;10.528;2023-05-18T07:52:48;102345.44;;;15.94
76381;BMP280;65202;52.520;10.528;2023-05-18T07:55:15;102344.06;;;16.18
76381;BMP280;65202;52.520;10.528;2023-05-18T07:57:43;102331.06;;;16.83
76381;BMP280;65202;52.520;10.528;2023-05-18T08:00:10;102348.84;;;16.66
76381;BMP280;65202;52.520;10.528;2023-05-18T08:02:38;102335.03;;;17.55
76381;BMP280;65202;52.520;10.528;2023-05-18T08:05:06;102340.63;;;17.47
76381;BMP280;65202;52.520;10.528;2023-05-18T08:07:35;102334.41;;;17.21
76381;BMP280;65202;52.520;10.528;2023-05-18T08:10:03;102340.59;;;16.34
76381;BMP280;65202;52.520;10.528;2023-05-18T08:12:31;102349.38;;;16.41
76381;BMP280;65202;52.520;10.528;2023-05-18T08:14:58;102344.03;;;17.09
76381;BMP280;65202;52.520;10.528;2023-05-18T08:17:26;102339.91;;;16.74
76381;BMP280;65202;52.520;10.528;2023-05-18T08:19:53;102338.13;;;17.89
76381;BMP280;65202;52.520;10.528;2023-05-18T08:22:20;102349.22;;;17.31
76381;BMP280;65202;52.520;10.528;2023-05-18T08:24:47;102333.56;;;17.60
76381;BMP280;65202;52.520;10.528;2023-05-18T08:27:15;102327.94;;;18.30
76381;BMP280;65202;52.520;10.528;2023-05-18T08:29:42;102324.84;;;17.54
76381;BMP280;65202;52.520;10.528;2023-05-18T08:32:09;102323.59;;;17.85
76381;BMP280;65202;52.520;10.528;2023-05-18T08:34:37;102321.31;;;17.50
76381;BMP280;65202;52.520;10.528;2023-05-18T08:37:04;102322.41;;;17.97
76381;BMP280;65202;52.520;10.528;2023-05-18T08:39:31;102307.59;;;18.98
76381;BMP280;65202;52.520;10.528;2023-05-18T08:42:02;102298.31;;;19.22
76381;BMP280;65202;52.520;10.528;2023-05-18T08:44:50;102311.88;;;18.52
76381;BMP280;65202;52.520;10.528;2023-05-18T08:47:26;102316.25;;;18.13
76381;BMP280;65202;52.520;10.528;2023-05-18T08:49:55;102317.31;;;17.16
76381;BMP280;65202;52.520;10.528;2023-05-18T08:52:24;102303.72;;;18.16
76381;BMP280;65202;52.520;10.528;2023-05-18T08:54:56;102313.97;;;17.76
76381;BMP280;65202;52.520;10.528;2023-05-18T08:57:27;102304.75;;;19.36
76381;BMP280;65202;52.520;10.528;2023-05-18T08:59:57;102298.06;;;18.44
76381;BMP280;65202;52.520;10.528;2023-05-18T09:02:27;102305.59;;;18.88
76381;BMP280;65202;52.520;10.528;2023-05-18T09:04:55;102300.13;;;19.01
76381;BMP280;65202;52.520;10.528;2023-05-18T09:07:23;102296.19;;;19.34
76381;BMP280;65202;52.520;10.528;2023-05-18T09:09:54;102304.09;;;18.25
76381;BMP280;65202;52.520;10.528;2023-05-18T09:12:23;102299.16;;;19.46
76381;BMP280;65202;52.520;10.528;2023-05-18T09:14:53;102296.75;;;18.55
76381;BMP280;65202;52.520;10.528;2023-05-18T09:17:20;102296.09;;;18.59
76381;BMP280;65202;52.520;10.528;2023-05-18T09:19:49;102300.53;;;18.43
76381;BMP280;65202;52.520;10.528;2023-05-18T09:22:17;102293.41;;;20.04
76381;BMP280;65202;52.520;10.528;2023-05-18T09:24:44;102290.09;;;19.80
76381;BMP280;65202;52.520;10.528;2023-05-18T09:27:11;102279.16;;;18.36
76381;BMP280;65202;52.520;10.528;2023-05-18T09:29:51;102295.81;;;17.06
76381;BMP280;65202;52.520;10.528;2023-05-18T09:32:23;102298.97;;;17.01
76381;BMP280;65202;52.520;10.528;2023-05-18T09:34:52;102294.28;;;17.10
76381;BMP280;65202;52.520;10.528;2023-05-18T09:37:20;102290.31;;;16.96
76381;BMP280;65202;52.520;10.528;2023-05-18T09:39:58;102290.47;;;17.38
76381;BMP280;65202;52.520;10.528;2023-05-18T09:42:38;102295.19;;;17.92
76381;BMP280;65202;52.520;10.528;2023-05-18T09:45:19;102282.22;;;18.73
76381;BMP280;65202;52.520;10.528;2023-05-18T09:47:49;102293.34;;;18.10
76381;BMP280;65202;52.520;10.528;2023-05-18T09:50:19;102281.31;;;18.26
76381;BMP280;65202;52.520;10.528;2023-05-18T09:52:48;102292.50;;;16.89
76381;BMP280;65202;52.520;10.528;2023-05-18T09:55:17;102293.25;;;16.67
76381;BMP280;65202;52.520;10.528;2023-05-18T09:57:47;102287.47;;;16.51
76381;BMP280;65202;52.520;10.528;2023-05-18T10:00:18;102291.16;;;17.15
76381;BMP280;65202;52.520;10.528;2023-05-18T10:02:48;102283.25;;;17.69
76381;BMP280;65202;52.520;10.528;2023-05-18T10:05:21;102282.38;;;17.89
76381;BMP280;65202;52.520;10.528;2023-05-18T10:07:50;102260.84;;;18.43
76381;BMP280;65202;52.520;10.528;2023-05-18T10:10:22;102264.28;;;18.45
76381;BMP280;65202;52.520;10.528;2023-05-18T10:12:52;102269.53;;;17.23
76381;BMP280;65202;52.520;10.528;2023-05-18T10:15:21;102268.25;;;16.36
76381;BMP280;65202;52.520;10.528;2023-05-18T10:17:50;102265.66;;;16.72
76381;BMP280;65202;52.520;10.528;2023-05-18T10:20:23;102269.38;;;16.42
76381;BMP280;65202;52.520;10.528;2023-05-18T10:22:54;102278.53;;;15.52
76381;BMP280;65202;52.520;10.528;2023-05-18T10:25:25;102274.59;;;16.10
76381;BMP280;65202;52.520;10.528;2023-05-18T10:27:59;102279.41;;;16.04
76381;BMP280;65202;52.520;10.528;2023-05-18T10:30:33;102266.72;;;17.77
76381;BMP280;65202;52.520;10.528;2023-05-18T10:33:01;102260.03;;;18.23
76381;BMP280;65202;52.520;10.528;2023-05-18T10:35:34;102255.97;;;18.04
76381;BMP280;65202;52.520;10.528;2023-05-18T10:38:04;102262.34;;;17.95
76381;BMP280;65202;52.520;10.528;2023-05-18T10:40:33;102260.50;;;18.34
76381;BMP280;65202;52.520;10.528;2023-05-18T10:43:02;102265.31;;;17.85
76381;BMP280;65202;52.520;10.528;2023-05-18T10:45:34;102254.97;;;18.69
76381;BMP280;65202;52.520;10.528;2023-05-18T10:48:03;102262.53;;;16.98
76381;BMP280;65202;52.520;10.528;2023-05-18T10:50:31;102265.09;;;16.60
76381;BMP280;65202;52.520;10.528;2023-05-18T10:52:59;102258.47;;;17.21
76381;BMP280;65202;52.520;10.528;2023-05-18T10:55:27;102257.34;;;17.34
76381;BMP280;65202;52.520;10.528;2023-05-18T10:58:00;102242.34;;;17.80
76381;BMP280;65202;52.520;10.528;2023-05-18T11:00:33;102249.66;;;16.92
76381;BMP280;65202;52.520;10.528;2023-05-18T11:03:02;102242.59;;;17.05
76381;BMP280;65202;52.520;10.528;2023-05-18T11:05:34;102245.16;;;16.66
76381;BMP280;65202;52.520;10.528;2023-05-18T11:08:02;102234.66;;;17.16
76381;BMP280;65202;52.520;10.528;2023-05-18T11:10:42;102232.28;;;17.40
76381;BMP280;65202;52.520;10.528;2023-05-18T11:13:13;102228.34;;;17.26
76381;BMP280;65202;52.520;10.528;2023-05-18T11:18:38;102222.34;;;17.88
76381;BMP280;65202;52.520;10.528;2023-05-18T11:24:12;102215.56;;;18.09
76381;BMP280;65202;52.520;10.528;2023-05-18T11:26:59;102219.06;;;17.90
76381;BMP280;65202;52.520;10.528;2023-05-18T11:29:36;102226.47;;;17.42
76381;BMP280;65202;52.520;10.528;2023-05-18T11:32:23;102207.72;;;18.03
76381;BMP280;65202;52.520;10.528;2023-05-18T11:34:57;102222.13;;;17.60
76381;BMP280;65202;52.520;10.528;2023-05-18T11:40:08;102226.09;;;17.13
76381;BMP280;65202;52.520;10.528;2023-05-18T11:42:57;102214.88;;;17.91
76381;BMP280;65202;52.520;10.528;2023-05-18T11:45:24;102203.31;;;17.75
76381;BMP280;65202;52.520;10.528;2023-05-18T11:47:55;102214.47;;;17.80
76381;BMP280;65202;52.520;10.528;2023-05-18T11:50:29;102203.25;;;17.74
76381;BMP280;65202;52.520;10.528;2023-05-18T11:52:57;102218.72;;;17.19
76381;BMP280;65202;52.520;10.528;2023-05-18T11:55:36;102217.50;;;17.09
76381;BMP280;65202;52.520;10.528;2023-05-18T11:58:06;102214.16;;;17.29
76381;BMP280;65202;52.520;10.528;2023-05-18T12:00:35;102213.19;;;16.87
76381;BMP280;65202;52.520;10.528;2023-05-18T12:03:03;102205.06;;;16.95
76381;BMP280;65202;52.520;10.528;2023-05-18T12:05:32;102214.53;;;17.19
76381;BMP280;65202;52.520;10.528;2023-05-18T12:08:02;102204.81;;;17.28
76381;BMP280;65202;52.520;10.528;2023-05-18T12:10:30;102206.50;;;17.09
76381;BMP280;65202;52.520;10.528;2023-05-18T12:13:00;102201.28;;;17.67
76381;BMP280;65202;52.520;10.528;2023-05-18T12:15:29;102198.88;;;17.70
76381;BMP280;65202;52.520;10.528;2023-05-18T12:17:57;102195.47;;;17.91
76381;BMP280;65202;52.520;10.528;2023-05-18T12:20:24;102195.28;;;17.65
76381;BMP280;65202;52.520;10.528;2023-05-18T12:22:54;102186.03;;;17.87
76381;BMP280;65202;52.520;10.528;2023-05-18T12:25:25;102184.91;;;18.03
76381;BMP280;65202;52.520;10.528;2023-05-18T12:27:54;102187.72;;;18.10
76381;BMP280;65202;52.520;10.528;2023-05-18T12:30:24;102197.44;;;17.76
76381;BMP280;65202;52.520;10.528;2023-05-18T12:33:01;102189.06;;;18.23
76381;BMP280;65202;52.520;10.528;2023-05-18T12:35:29;102193.81;;;17.70
76381;BMP280;65202;52.520;10.528;2023-05-18T12:37:58;102184.13;;;18.74
76381;BMP280;65202;52.520;10.528;2023-05-18T12:40:33;102178.69;;;18.40
76381;BMP280;65202;52.520;10.528;2023-05-18T12:43:12;102189.19;;;17.38
76381;BMP280;65202;52.520;10.528;2023-05-18T12:45:39;102183.09;;;17.55
76381;BMP280;65202;52.520;10.528;2023-05-18T12:48:11;102178.72;;;17.95
76381;BMP280;65202;52.520;10.528;2023-05-18T12:50:46;102189.50;;;18.13
76381;BMP280;65202;52.520;10.528;2023-05-18T12:53:16;102178.47;;;18.11
76381;BMP280;65202;52.520;10.528;2023-05-18T12:55:44;102169.28;;;17.91
76381;BMP280;65202;52.520;10.528;2023-05-18T12:58:12;102175.69;;;18.05
76381;BMP280;65202;52.520;10.528;2023-05-18T13:00:44;102166.47;;;17.83
76381;BMP280;65202;52.520;10.528;2023-05-18T13:03:19;102167.50;;;17.88
76381;BMP280;65202;52.520;10.528;2023-05-18T13:06:02;102169.13;;;17.88
76381;BMP280;65202;52.520;10.528;2023-05-18T13:08:33;102159.13;;;17.91
76381;BMP280;65202;52.520;10.528;2023-05-18T13:11:06;102162.22;;;17.40
76381;BMP280;65202;52.520;10.528;2023-05-18T13:14:01;102156.38;;;17.85
76381;BMP280;65202;52.520;10.528;2023-05-18T13:16:32;102158.81;;;18.05
76381;BMP280;65202;52.520;10.528;2023-05-18T13:19:03;102164.59;;;17.36
76381;BMP280;65202;52.520;10.528;2023-05-18T13:21:33;102141.94;;;18.06
76381;BMP280;65202;52.520;10.528;2023-05-18T13:24:02;102147.16;;;18.10
76381;BMP280;65202;52.520;10.528;2023-05-18T13:26:30;102153.41;;;18.18
76381;BMP280;65202;52.520;10.528;2023-05-18T13:28:58;102139.88;;;18.18
76381;BMP280;65202;52.520;10.528;2023-05-18T13:31:26;102140.22;;;17.83
76381;BMP280;65202;52.520;10.528;2023-05-18T13:33:55;102134.47;;;18.32
76381;BMP280;65202;52.520;10.528;2023-05-18T13:36:23;102129.38;;;18.09
76381;BMP280;65202;52.520;10.528;2023-05-18T13:38:50;102139.47;;;17.85
76381;BMP280;65202;52.520;10.528;2023-05-18T13:41:18;102139.94;;;17.52
76381;BMP280;65202;52.520;10.528;2023-05-18T13:43:45;102134.50;;;17.87
76381;BMP280;65202;52.520;10.528;2023-05-18T13:46:12;102136.56;;;18.20
76381;BMP280;65202;52.520;10.528;2023-05-18T13:48:40;102134.34;;;18.29
76381;BMP280;65202;52.520;10.528;2023-05-18T13:51:07;102132.88;;;17.89
76381;BMP280;65202;52.520;10.528;2023-05-18T13:53:35;102132.09;;;18.13
76381;BMP280;65202;52.520;10.528;2023-05-18T13:56:04;102122.13;;;17.72
76381;BMP280;65202;52.520;10.528;2023-05-18T13:58:31;102124.56;;;17.93
76381;BMP280;65202;52.520;10.528;2023-05-18T14:00:59;102120.56;;;18.21
76381;BMP280;65202;52.520;10.528;2023-05-18T14:03:29;102117.28;;;18.48
76381;BMP280;65202;52.520;10.528;2023-05-18T14:05:59;102112.28;;;18.27
76381;BMP280;65202;52.520;10.528;2023-05-18T14:08:27;102115.97;;;17.66
76381;BMP280;65202;52.520;10.528;2023-05-18T14:10:54;102119.13;;;18.29
76381;BMP280;65202;52.520;10.528;2023-05-18T14:13:21;102115.75;;;18.07
76381;BMP280;65202;52.520;10.528;2023-05-18T14:15:48;102115.66;;;17.80
76381;BMP280;65202;52.520;10.528;2023-05-18T14:18:15;102101.66;;;18.13